createdAt,value
2022-08-20T00:02:02.744Z,24.20
2022-08-20T00:04:26.845Z,24.15
2022-08-20T00:06:52.844Z,24.27
2022-08-20T00:09:16.904Z,23.99
2022-08-20T00:11:41.017Z,24.24
2022-08-20T00:14:07.821Z,24.26
2022-08-20T00:16:34.443Z,24.35
2022-08-20T00:18:58.491Z,24.09
2022-08-20T00:21:23.276Z,24.31
2022-08-20T00:23:52.180Z,24.38
2022-08-20T00:26:18.014Z,24.58
2022-08-20T00:28:42.215Z,24.57
2022-08-20T00:31:09.705Z,24.33
2022-08-20T00:33:34.547Z,24.29
2022-08-20T00:36:06.476Z,24.25
2022-08-20T00:38:31.619Z,24.42
2022-08-20T00:41:00.929Z,24.71
2022-08-20T00:43:37.335Z,24.52
2022-08-20T00:46:03.708Z,24.68
2022-08-20T00:48:30.609Z,24.58
2022-08-20T00:50:58.034Z,24.44
2022-08-20T00:53:24.851Z,24.41
2022-08-20T00:55:49.030Z,24.67
2022-08-20T00:58:14.530Z,24.64
2022-08-20T01:00:41.063Z,24.35
2022-08-20T01:03:05.482Z,24.27
2022-08-20T01:05:32.926Z,24.07
2022-08-20T01:07:58.398Z,23.87
2022-08-20T01:10:27.838Z,23.63
2022-08-20T01:12:55.578Z,23.32
2022-08-20T01:15:31.190Z,23.63
2022-08-20T01:17:59.106Z,23.62
2022-08-20T01:20:26.313Z,23.88
2022-08-20T01:23:19.599Z,23.92
2022-08-20T01:25:49.922Z,23.81
2022-08-20T01:28:16.184Z,24.00
2022-08-20T01:30:40.549Z,23.72
2022-08-20T01:33:04.918Z,23.98
2022-08-20T01:35:30.073Z,23.94
2022-08-20T01:37:54.505Z,23.96
2022-08-20T01:40:30.702Z,23.87
2022-08-20T01:42:59.671Z,23.85
2022-08-20T01:45:26.866Z,23.85
2022-08-20T01:47:51.883Z,23.86
2022-08-20T01:50:23.105Z,23.85
2022-08-20T01:52:53.210Z,23.74
2022-08-20T01:55:17.421Z,23.53
2022-08-20T01:57:42.243Z,23.27
2022-08-20T02:00:20.178Z,23.30
2022-08-20T02:02:46.473Z,23.65
2022-08-20T02:05:11.455Z,23.72
2022-08-20T02:07:36.112Z,23.67
2022-08-20T02:10:00.902Z,23.57
2022-08-20T02:12:24.866Z,23.65
2022-08-20T02:14:51.468Z,23.43
2022-08-20T02:17:18.338Z,23.61
2022-08-20T02:19:47.184Z,23.36
2022-08-20T02:22:19.556Z,23.76
2022-08-20T02:24:43.992Z,23.69
2022-08-20T02:27:07.951Z,23.66
2022-08-20T02:29:31.985Z,23.49
2022-08-20T02:32:24.902Z,23.41
2022-08-20T02:34:45.384Z,23.31
2022-08-20T02:37:10.119Z,23.41
2022-08-20T02:39:34.679Z,23.02
2022-08-20T02:41:58.999Z,22.87
2022-08-20T02:44:23.277Z,22.79
2022-08-20T02:46:47.676Z,22.94
2022-08-20T02:49:11.726Z,22.67
2022-08-20T02:51:37.308Z,22.69
2022-08-20T02:54:01.781Z,22.60
2022-08-20T02:56:26.363Z,22.68
2022-08-20T02:58:50.519Z,22.71
2022-08-20T03:01:18.405Z,22.83
2022-08-20T03:03:43.561Z,22.58
2022-08-20T03:06:10.062Z,22.48
2022-08-20T03:08:35.508Z,22.60
2022-08-20T03:10:59.547Z,22.43
2022-08-20T03:13:24.343Z,22.35
2022-08-20T03:15:52.499Z,22.65
2022-08-20T03:18:21.222Z,22.71
2022-08-20T03:20:46.755Z,22.58
2022-08-20T03:23:16.880Z,22.61
2022-08-20T03:25:42.513Z,22.80
2022-08-20T03:28:07.317Z,22.43
2022-08-20T03:30:32.118Z,22.70
2022-08-20T03:32:57.589Z,22.61
2022-08-20T03:35:24.242Z,22.94
2022-08-20T03:37:49.004Z,22.72
2022-08-20T03:40:16.628Z,23.35
2022-08-20T03:42:43.078Z,23.40
2022-08-20T03:45:09.352Z,23.20
2022-08-20T03:47:33.875Z,23.03
2022-08-20T03:50:00.988Z,23.04
2022-08-20T03:52:29.522Z,23.43
2022-08-20T03:54:53.849Z,23.40
2022-08-20T03:57:18.108Z,23.40
2022-08-20T03:59:44.594Z,22.99
2022-08-20T04:02:08.716Z,23.18
2022-08-20T04:04:32.948Z,23.42
2022-08-20T04:06:57.016Z,23.38
2022-08-20T04:09:21.211Z,23.28
2022-08-20T04:11:45.432Z,23.50
2022-08-20T04:14:11.155Z,23.46
2022-08-20T04:16:37.735Z,23.53
2022-08-20T04:19:04.060Z,23.73
2022-08-20T04:21:32.791Z,23.88
2022-08-20T04:23:58.894Z,24.22
2022-08-20T04:26:22.937Z,24.38
2022-08-20T04:28:47.381Z,24.01
2022-08-20T04:31:13.821Z,24.04
2022-08-20T04:33:39.319Z,24.26
2022-08-20T04:36:06.193Z,24.36
2022-08-20T04:38:48.012Z,24.52
2022-08-20T04:41:22.424Z,24.69
2022-08-20T04:43:47.343Z,24.84
2022-08-20T04:46:11.636Z,24.94
2022-08-20T04:48:39.240Z,25.15
2022-08-20T04:51:07.160Z,25.33
2022-08-20T04:53:32.487Z,25.29
2022-08-20T04:55:59.572Z,25.19
2022-08-20T04:58:30.386Z,25.52
2022-08-20T05:01:01.137Z,25.84
2022-08-20T05:03:26.945Z,26.04
2022-08-20T05:05:51.360Z,26.34
2022-08-20T05:08:20.263Z,26.45
2022-08-20T05:10:45.176Z,26.60
2022-08-20T05:13:10.258Z,26.85
2022-08-20T05:15:34.892Z,26.86
2022-08-20T05:18:03.555Z,26.58
2022-08-20T05:20:32.242Z,26.41
2022-08-20T05:22:56.327Z,26.40
2022-08-20T05:25:22.097Z,26.81
2022-08-20T05:27:47.907Z,26.68
2022-08-20T05:30:13.635Z,26.66
2022-08-20T05:32:44.633Z,26.80
2022-08-20T05:35:11.479Z,27.02
2022-08-20T05:37:36.112Z,26.95
2022-08-20T05:40:00.373Z,27.14
2022-08-20T05:42:29.776Z,27.33
2022-08-20T05:44:53.952Z,27.37
2022-08-20T05:47:18.480Z,27.47
2022-08-20T05:49:42.891Z,27.61
2022-08-20T05:52:07.281Z,27.70
2022-08-20T05:54:31.393Z,26.86
2022-08-20T05:56:57.874Z,27.72
2022-08-20T06:00:03.473Z,27.99
2022-08-20T06:02:54.388Z,27.96
2022-08-20T06:05:19.935Z,28.16
2022-08-20T06:07:43.925Z,28.15
2022-08-20T06:10:10.868Z,28.22
2022-08-20T06:12:35.011Z,28.38
2022-08-20T06:14:59.044Z,28.39
2022-08-20T06:17:24.413Z,28.60
2022-08-20T06:19:48.774Z,28.71
2022-08-20T06:22:19.338Z,28.68
2022-08-20T06:24:50.619Z,28.90
2022-08-20T06:27:16.083Z,28.86
2022-08-20T06:29:40.258Z,29.00
2022-08-20T06:32:04.744Z,29.09
2022-08-20T06:34:30.914Z,29.24
2022-08-20T06:36:55.986Z,29.50
2022-08-20T06:39:20.545Z,29.58
2022-08-20T06:41:45.286Z,29.45
2022-08-20T06:44:10.326Z,29.54
2022-08-20T06:46:36.311Z,29.70
2022-08-20T06:49:00.945Z,29.73
2022-08-20T06:51:26.777Z,29.84
2022-08-20T06:53:51.217Z,29.85
2022-08-20T06:56:15.564Z,29.93
2022-08-20T06:58:40.007Z,29.98
2022-08-20T07:01:09.615Z,29.72
2022-08-20T07:03:34.632Z,30.27
2022-08-20T07:05:59.629Z,30.47
2022-08-20T07:08:25.456Z,30.20
2022-08-20T07:10:50.411Z,29.89
2022-08-20T07:13:16.452Z,30.32
2022-08-20T07:15:40.520Z,30.84
2022-08-20T07:18:07.543Z,30.69
2022-08-20T07:20:33.430Z,31.01
2022-08-20T07:22:57.625Z,31.19
2022-08-20T07:25:23.753Z,31.34
2022-08-20T07:27:48.632Z,31.36
2022-08-20T07:30:34.917Z,31.58
2022-08-20T07:33:19.277Z,31.62
2022-08-20T07:35:49.242Z,31.34
2022-08-20T07:38:19.581Z,31.64
2022-08-20T07:40:48.911Z,31.82
2022-08-20T07:43:14.272Z,32.00
2022-08-20T07:45:39.164Z,32.41
2022-08-20T07:48:08.381Z,32.36
2022-08-20T07:50:32.831Z,32.06
2022-08-20T07:53:00.539Z,32.84
2022-08-20T07:55:25.049Z,32.02
2022-08-20T07:57:51.811Z,31.86
2022-08-20T08:00:17.703Z,32.06
2022-08-20T08:02:41.905Z,32.72
2022-08-20T08:05:06.758Z,32.01
2022-08-20T08:07:31.380Z,31.83
2022-08-20T08:09:56.624Z,32.34
2022-08-20T08:12:21.487Z,33.00
2022-08-20T08:14:49.483Z,32.81
2022-08-20T08:17:14.019Z,33.99
2022-08-20T08:19:43.797Z,33.69
2022-08-20T08:22:11.626Z,34.12
2022-08-20T08:24:36.021Z,34.33
2022-08-20T08:27:00.141Z,34.16
2022-08-20T08:29:24.193Z,32.84
2022-08-20T08:31:49.794Z,33.53
2022-08-20T08:34:14.167Z,33.62
2022-08-20T08:36:39.433Z,33.48
2022-08-20T08:39:03.605Z,33.82
2022-08-20T08:41:32.037Z,33.32
2022-08-20T08:44:05.775Z,34.03
2022-08-20T08:46:34.190Z,34.06
2022-08-20T08:49:02.937Z,33.93
2022-08-20T08:51:36.695Z,33.69
2022-08-20T08:54:06.602Z,33.35
2022-08-20T08:56:32.265Z,33.07
2022-08-20T08:59:01.710Z,32.88
2022-08-20T09:01:53.780Z,33.61
2022-08-20T09:04:13.621Z,33.11
2022-08-20T09:06:40.445Z,33.27
2022-08-20T09:09:07.372Z,33.60
2022-08-20T09:11:32.777Z,33.62
2022-08-20T09:13:59.793Z,32.94
2022-08-20T09:16:26.059Z,32.06
2022-08-20T09:18:55.070Z,33.13
2022-08-20T09:21:20.873Z,32.59
2022-08-20T09:23:45.405Z,32.54
2022-08-20T09:26:10.006Z,33.00
2022-08-20T09:28:35.235Z,33.04
2022-08-20T09:31:01.408Z,32.60
2022-08-20T09:33:25.558Z,32.51
2022-08-20T09:35:49.834Z,32.49
2022-08-20T09:38:15.465Z,32.96
2022-08-20T09:40:39.961Z,32.75
2022-08-20T09:43:06.554Z,32.59
2022-08-20T09:45:31.862Z,32.65
2022-08-20T09:47:57.218Z,32.64
2022-08-20T09:50:22.147Z,32.29
2022-08-20T09:52:51.174Z,32.22
2022-08-20T09:55:23.047Z,31.92
2022-08-20T09:57:48.159Z,31.72
2022-08-20T10:00:12.996Z,32.20
2022-08-20T10:02:36.984Z,32.16
2022-08-20T10:05:01.157Z,31.78
2022-08-20T10:07:25.161Z,32.02
2022-08-20T10:09:49.430Z,32.27
2022-08-20T10:12:15.399Z,32.44
2022-08-20T10:14:40.463Z,32.30
2022-08-20T10:17:05.498Z,32.38
2022-08-20T10:19:31.384Z,32.43
2022-08-20T10:21:56.500Z,32.40
2022-08-20T10:24:21.010Z,31.75
2022-08-20T10:26:45.356Z,31.59
2022-08-20T10:29:11.114Z,31.60
2022-08-20T10:31:35.630Z,31.95
2022-08-20T10:34:00.125Z,32.07
2022-08-20T10:36:24.313Z,31.69
2022-08-20T10:38:49.287Z,31.97
2022-08-20T10:41:13.794Z,31.78
2022-08-20T10:43:38.208Z,31.21
2022-08-20T10:46:04.237Z,31.36
2022-08-20T10:48:29.049Z,31.61
2022-08-20T10:50:53.257Z,32.36
2022-08-20T10:53:17.740Z,32.12
2022-08-20T10:55:42.848Z,31.50
2022-08-20T10:58:08.077Z,31.07
2022-08-20T11:00:36.168Z,31.81
2022-08-20T11:03:02.479Z,32.00
2022-08-20T11:05:26.872Z,31.81
2022-08-20T11:07:56.238Z,31.53
2022-08-20T11:10:21.368Z,31.35
2022-08-20T11:12:46.347Z,31.83
2022-08-20T11:15:11.984Z,32.44
2022-08-20T11:17:38.359Z,32.08
2022-08-20T11:20:06.370Z,31.61
2022-08-20T11:22:30.543Z,31.68
2022-08-20T11:24:55.646Z,31.61
2022-08-20T11:27:24.647Z,31.83
2022-08-20T11:29:48.799Z,31.83
2022-08-20T11:32:13.327Z,32.20
2022-08-20T11:34:37.541Z,32.51
2022-08-20T11:37:03.254Z,32.58
2022-08-20T11:39:28.257Z,32.36
2022-08-20T11:41:55.438Z,32.67
2022-08-20T11:44:20.669Z,32.83
2022-08-20T11:46:46.017Z,32.28
2022-08-20T11:49:11.988Z,32.34
2022-08-20T11:51:48.967Z,32.57
2022-08-20T11:54:15.662Z,32.52
2022-08-20T11:56:39.793Z,32.19
2022-08-20T11:59:10.451Z,31.90
2022-08-20T12:01:36.330Z,32.45
2022-08-20T12:04:00.532Z,32.34
2022-08-20T12:06:24.736Z,32.44
2022-08-20T12:08:49.386Z,32.04
2022-08-20T12:11:15.196Z,31.50
2022-08-20T12:13:48.971Z,31.09
2022-08-20T12:16:13.684Z,32.01
2022-08-20T12:18:38.095Z,32.68
2022-08-20T12:21:02.234Z,32.28
2022-08-20T12:23:26.769Z,31.74
2022-08-20T12:25:51.384Z,31.58
2022-08-20T12:28:17.045Z,31.48
2022-08-20T12:30:47.640Z,31.91
2022-08-20T12:33:11.828Z,31.48
2022-08-20T12:35:36.116Z,31.95
2022-08-20T12:38:03.266Z,31.58
2022-08-20T12:40:32.129Z,30.82
2022-08-20T12:42:57.385Z,31.11
2022-08-20T12:45:23.587Z,31.92
2022-08-20T12:47:49.755Z,31.30
2022-08-20T12:50:16.889Z,31.34
2022-08-20T12:52:41.493Z,31.53
2022-08-20T12:55:07.751Z,31.26
2022-08-20T12:57:34.398Z,31.37
2022-08-20T12:59:59.568Z,31.37
2022-08-20T13:02:25.055Z,31.20
2022-08-20T13:04:49.024Z,31.34
2022-08-20T13:07:14.493Z,31.80
2022-08-20T13:09:40.320Z,32.12
2022-08-20T13:12:05.801Z,31.65
2022-08-20T13:14:30.252Z,31.38
2022-08-20T13:16:58.930Z,30.90
2022-08-20T13:19:27.232Z,30.99
2022-08-20T13:21:55.062Z,30.97
2022-08-20T13:24:19.260Z,31.05
2022-08-20T13:26:43.371Z,30.98
2022-08-20T13:29:07.614Z,31.19
2022-08-20T13:31:31.665Z,30.29
2022-08-20T13:33:56.885Z,31.08
2022-08-20T13:36:22.714Z,31.39
2022-08-20T13:38:46.785Z,31.41
2022-08-20T13:41:10.766Z,31.67
2022-08-20T13:43:35.038Z,31.68
2022-08-20T13:45:59.190Z,31.73
2022-08-20T13:48:23.345Z,32.09
2022-08-20T13:50:47.666Z,32.50
2022-08-20T13:53:13.113Z,31.64
2022-08-20T13:55:39.179Z,31.22
2022-08-20T13:58:06.717Z,32.02
2022-08-20T14:00:33.279Z,31.55
2022-08-20T14:02:57.531Z,31.13
2022-08-20T14:05:22.185Z,32.02
2022-08-20T14:07:46.731Z,32.01
2022-08-20T14:10:15.220Z,31.94
2022-08-20T14:12:39.953Z,31.74
2022-08-20T14:15:04.320Z,32.35
2022-08-20T14:17:30.352Z,31.33
2022-08-20T14:20:01.444Z,30.52
2022-08-20T14:22:27.935Z,30.62
2022-08-20T14:24:52.254Z,30.52
2022-08-20T14:27:21.393Z,31.28
2022-08-20T14:29:47.131Z,31.80
2022-08-20T14:32:11.912Z,31.30
2022-08-20T14:34:36.360Z,30.67
2022-08-20T14:37:11.487Z,30.91
2022-08-20T14:39:35.708Z,30.89
2022-08-20T14:41:59.785Z,31.29
2022-08-20T14:44:25.167Z,31.17
2022-08-20T14:46:49.173Z,31.90
2022-08-20T14:49:13.328Z,31.68
2022-08-20T14:51:38.854Z,31.81
2022-08-20T14:54:02.853Z,32.14
2022-08-20T14:56:27.185Z,31.56
2022-08-20T14:58:51.673Z,31.68
2022-08-20T15:01:17.141Z,30.81
2022-08-20T15:03:41.272Z,30.61
2022-08-20T15:06:10.891Z,30.43
2022-08-20T15:08:47.054Z,30.55
2022-08-20T15:11:11.372Z,30.53
2022-08-20T15:13:35.500Z,30.79
2022-08-20T15:15:59.820Z,31.83
2022-08-20T15:18:25.285Z,31.21
2022-08-20T15:20:49.354Z,31.02
2022-08-20T15:23:13.423Z,30.85
2022-08-20T15:25:38.288Z,30.36
2022-08-20T15:28:04.646Z,30.14
2022-08-20T15:30:31.271Z,29.89
2022-08-20T15:32:56.430Z,30.27
2022-08-20T15:35:23.620Z,30.07
2022-08-20T15:37:50.503Z,30.42
2022-08-20T15:40:17.987Z,31.46
2022-08-20T15:42:41.947Z,30.41
2022-08-20T15:45:08.922Z,30.61
2022-08-20T15:47:37.961Z,29.89
2022-08-20T15:50:04.966Z,29.65
2022-08-20T15:52:43.397Z,29.72
2022-08-20T15:55:11.537Z,29.56
2022-08-20T15:57:50.255Z,30.14
2022-08-20T16:00:17.242Z,30.43
2022-08-20T16:03:08.348Z,29.95
2022-08-20T16:05:44.301Z,30.16
2022-08-20T16:08:23.238Z,30.19
2022-08-20T16:11:01.181Z,30.50
2022-08-20T16:13:32.591Z,30.51
2022-08-20T16:16:00.816Z,30.35
2022-08-20T16:18:28.877Z,29.53
2022-08-20T16:20:54.988Z,29.40
2022-08-20T16:23:22.615Z,29.64
2022-08-20T16:26:02.495Z,29.64
2022-08-20T16:28:32.173Z,29.38
2022-08-20T16:31:03.803Z,29.56
2022-08-20T16:33:32.843Z,29.56
2022-08-20T16:36:03.884Z,29.47
2022-08-20T16:38:40.336Z,28.85
2022-08-20T16:41:13.878Z,28.81
2022-08-20T16:43:44.392Z,28.62
2022-08-20T16:46:16.845Z,28.97
2022-08-20T16:48:48.213Z,29.04
2022-08-20T16:51:18.588Z,28.63
2022-08-20T16:53:44.164Z,28.47
2022-08-20T16:56:08.565Z,28.07
2022-08-20T16:58:33.107Z,28.36
2022-08-20T17:01:08.572Z,28.69
2022-08-20T17:03:39.452Z,28.52
2022-08-20T17:06:16.642Z,28.33
2022-08-20T17:08:50.378Z,28.09
2022-08-20T17:11:17.252Z,28.16
2022-08-20T17:13:43.768Z,28.73
2022-08-20T17:16:17.851Z,28.72
2022-08-20T17:18:44.620Z,28.69
2022-08-20T17:21:16.794Z,28.97
2022-08-20T17:23:56.062Z,28.98
2022-08-20T17:26:26.314Z,28.91
2022-08-20T17:28:51.130Z,28.80
2022-08-20T17:31:21.392Z,28.69
2022-08-20T17:34:00.000Z,28.75
2022-08-20T17:36:26.271Z,28.45
2022-08-20T17:38:53.148Z,28.22
2022-08-20T17:41:22.883Z,28.22
2022-08-20T17:43:47.048Z,27.98
2022-08-20T17:46:16.354Z,28.24
2022-08-20T17:48:45.269Z,28.36
2022-08-20T17:51:20.243Z,28.25
2022-08-20T17:53:47.782Z,28.38
2022-08-20T17:56:19.656Z,28.41
2022-08-20T17:58:54.266Z,28.09
2022-08-20T18:01:21.467Z,27.70
2022-08-20T18:03:45.463Z,27.41
2022-08-20T18:06:17.434Z,27.71
2022-08-20T18:08:54.513Z,27.67
2022-08-20T18:11:26.319Z,27.69
2022-08-20T18:14:04.736Z,27.52
2022-08-20T18:16:35.591Z,27.35
2022-08-20T18:19:10.428Z,27.45
2022-08-20T18:22:00.523Z,27.50
2022-08-20T18:24:28.949Z,27.41
2022-08-20T18:26:58.147Z,26.98
2022-08-20T18:29:29.090Z,26.62
2022-08-20T18:31:55.863Z,26.38
2022-08-20T18:34:23.440Z,26.54
2022-08-20T18:36:57.352Z,26.77
2022-08-20T18:39:28.987Z,26.54
2022-08-20T18:42:00.385Z,26.52
2022-08-20T18:44:35.625Z,26.51
2022-08-20T18:47:04.279Z,26.59
2022-08-20T18:49:31.839Z,26.56
2022-08-20T18:51:56.231Z,26.56
2022-08-20T18:54:26.768Z,26.62
2022-08-20T18:57:02.533Z,26.63
2022-08-20T18:59:26.675Z,26.66
2022-08-20T19:01:52.250Z,26.75
2022-08-20T19:04:27.277Z,26.29
2022-08-20T19:06:57.693Z,26.05
2022-08-20T19:09:36.936Z,26.20
2022-08-20T19:12:12.868Z,25.90
2022-08-20T19:14:56.485Z,25.74
2022-08-20T19:17:33.151Z,25.77
2022-08-20T19:20:03.295Z,25.93
2022-08-20T19:22:28.083Z,25.91
2022-08-20T19:24:58.719Z,25.94
2022-08-20T19:27:22.999Z,25.97
2022-08-20T19:29:50.340Z,25.84
2022-08-20T19:32:24.798Z,25.77
2022-08-20T19:34:54.813Z,25.97
2022-08-20T19:37:35.274Z,25.89
2022-08-20T19:40:06.618Z,25.94
2022-08-20T19:42:33.428Z,26.09
2022-08-20T19:45:00.845Z,25.93
2022-08-20T19:47:32.736Z,25.84
2022-08-20T19:50:09.936Z,25.93
2022-08-20T19:52:44.020Z,25.78
2022-08-20T19:55:19.608Z,25.69
2022-08-20T19:57:51.172Z,25.63
2022-08-20T20:00:17.483Z,25.60
2022-08-20T20:02:42.945Z,26.01
2022-08-20T20:05:08.684Z,25.92
2022-08-20T20:07:39.962Z,25.87
2022-08-20T20:10:07.600Z,25.84
2022-08-20T20:12:33.857Z,25.89
2022-08-20T20:14:58.047Z,25.66
2022-08-20T20:17:25.711Z,25.40
2022-08-20T20:19:56.792Z,25.70
2022-08-20T20:22:28.427Z,25.22
2022-08-20T20:25:01.634Z,25.06
2022-08-20T20:27:28.958Z,24.87
2022-08-20T20:30:00.096Z,24.65
2022-08-20T20:32:26.367Z,24.81
2022-08-20T20:34:57.256Z,25.25
2022-08-20T20:37:49.358Z,25.52
2022-08-20T20:40:23.079Z,25.27
2022-08-20T20:42:59.203Z,25.13
2022-08-20T20:45:30.280Z,25.04
2022-08-20T20:47:55.044Z,25.25
2022-08-20T20:50:31.024Z,25.24
2022-08-20T20:52:56.484Z,25.03
2022-08-20T20:55:26.925Z,24.95
2022-08-20T20:57:51.400Z,25.22
2022-08-20T21:00:18.363Z,25.15
2022-08-20T21:02:43.411Z,25.33
2022-08-20T21:05:07.733Z,25.32
2022-08-20T21:07:33.267Z,25.47
2022-08-20T21:09:58.205Z,25.56
2022-08-20T21:12:22.449Z,25.68
2022-08-20T21:14:46.703Z,25.52
2022-08-20T21:17:14.971Z,25.69
2022-08-20T21:19:42.339Z,25.64
2022-08-20T21:22:09.670Z,25.39
2022-08-20T21:24:35.154Z,25.05
2022-08-20T21:27:01.604Z,24.97
2022-08-20T21:29:32.503Z,25.13
2022-08-20T21:31:57.659Z,25.23
2022-08-20T21:34:22.248Z,25.12
2022-08-20T21:36:46.574Z,25.07
2022-08-20T21:39:11.602Z,24.93
2022-08-20T21:41:37.811Z,25.18
2022-08-20T21:44:05.707Z,25.30
2022-08-20T21:46:29.822Z,24.91
2022-08-20T21:48:53.867Z,24.73
2022-08-20T21:51:18.018Z,24.52
2022-08-20T21:53:42.111Z,24.64
2022-08-20T21:56:06.909Z,24.59
2022-08-20T21:58:32.643Z,24.57
2022-08-20T22:00:59.470Z,24.51
2022-08-20T22:03:25.270Z,24.39
2022-08-20T22:05:50.323Z,24.28
2022-08-20T22:08:14.975Z,24.33
2022-08-20T22:10:39.056Z,24.50
2022-08-20T22:13:03.882Z,24.43
2022-08-20T22:15:29.283Z,24.40
2022-08-20T22:17:53.403Z,24.52
2022-08-20T22:20:17.648Z,24.60
2022-08-20T22:22:41.648Z,24.63
2022-08-20T22:25:12.248Z,24.69
2022-08-20T22:27:37.776Z,24.55
2022-08-20T22:30:01.757Z,24.56
2022-08-20T22:32:30.808Z,24.32
2022-08-20T22:35:12.753Z,24.07
2022-08-20T22:37:37.603Z,24.14
2022-08-20T22:40:01.725Z,24.26
2022-08-20T22:42:27.222Z,24.56
2022-08-20T22:44:53.837Z,24.48
2022-08-20T22:47:24.635Z,24.35
2022-08-20T22:49:50.294Z,24.53
2022-08-20T22:52:14.481Z,24.43
2022-08-20T22:54:39.010Z,24.45
2022-08-20T22:57:08.815Z,24.65
2022-08-20T22:59:33.229Z,24.63
2022-08-20T23:02:09.899Z,24.66
2022-08-20T23:04:36.513Z,24.79
2022-08-20T23:07:03.771Z,24.55
2022-08-20T23:09:30.283Z,24.64
2022-08-20T23:11:55.029Z,24.73
2022-08-20T23:14:19.206Z,24.53
2022-08-20T23:16:45.730Z,24.26
2022-08-20T23:19:12.389Z,23.99
2022-08-20T23:21:36.302Z,23.80
2022-08-20T23:24:01.728Z,23.61
2022-08-20T23:26:26.065Z,23.52
2022-08-20T23:28:50.690Z,23.81
2022-08-20T23:31:14.627Z,24.25
2022-08-20T23:33:41.839Z,24.44
2022-08-20T23:36:11.749Z,24.59
2022-08-20T23:38:35.833Z,24.64
2022-08-20T23:41:01.244Z,24.50
2022-08-20T23:43:25.299Z,24.18
2022-08-20T23:45:49.326Z,24.34
2022-08-20T23:48:13.760Z,24.37
2022-08-20T23:50:38.489Z,24.50
2022-08-20T23:53:02.651Z,24.27
2022-08-20T23:55:27.513Z,24.14
2022-08-20T23:57:53.574Z,24.06
